createdAt,value
2022-10-09T00:01:23.386Z,11.83
2022-10-09T00:03:53.282Z,12.40
2022-10-09T00:06:23.191Z,11.77
2022-10-09T00:08:53.071Z,15.13
2022-10-09T00:11:24.707Z,10.47
2022-10-09T00:13:54.789Z,13.77
2022-10-09T00:16:24.105Z,11.83
2022-10-09T00:18:53.068Z,14.33
2022-10-09T00:21:23.972Z,12.10
2022-10-09T00:23:55.478Z,12.43
2022-10-09T00:26:24.758Z,15.03
2022-10-09T00:28:53.299Z,11.00
2022-10-09T00:31:22.095Z,12.70
2022-10-09T00:33:50.646Z,10.97
2022-10-09T00:36:21.659Z,14.30
2022-10-09T00:38:50.577Z,11.97
2022-10-09T00:41:21.954Z,13.03
2022-10-09T00:43:51.494Z,12.50
2022-10-09T00:46:28.978Z,11.90
2022-10-09T00:49:03.414Z,15.50
2022-10-09T00:51:33.308Z,11.77
2022-10-09T00:54:04.029Z,15.17
2022-10-09T00:56:34.905Z,16.23
2022-10-09T00:59:04.446Z,15.30
2022-10-09T01:01:32.790Z,15.67
2022-10-09T01:04:01.051Z,16.30
2022-10-09T01:06:43.874Z,14.00
2022-10-09T01:09:15.954Z,18.60
2022-10-09T01:11:53.033Z,20.17
2022-10-09T01:14:27.242Z,16.83
2022-10-09T01:17:02.871Z,17.93
2022-10-09T01:19:51.180Z,14.23
2022-10-09T01:22:40.694Z,15.70
2022-10-09T01:25:11.485Z,14.93
2022-10-09T01:27:42.106Z,19.87
2022-10-09T01:30:13.282Z,17.00
2022-10-09T01:32:47.442Z,15.70
2022-10-09T01:35:16.765Z,15.00
2022-10-09T01:37:47.777Z,16.37
2022-10-09T01:40:18.031Z,15.43
2022-10-09T01:42:48.037Z,19.37
2022-10-09T01:45:16.938Z,15.53
2022-10-09T01:47:45.170Z,13.10
2022-10-09T01:50:22.874Z,14.97
2022-10-09T01:52:53.231Z,13.43
2022-10-09T01:55:31.478Z,14.27
2022-10-09T01:58:09.190Z,13.93
2022-10-09T02:00:44.497Z,16.17
2022-10-09T02:03:14.602Z,16.77
2022-10-09T02:05:45.501Z,14.37
2022-10-09T02:08:15.843Z,14.10
2022-10-09T02:10:49.607Z,16.70
2022-10-09T02:13:19.554Z,15.27
2022-10-09T02:15:51.598Z,13.40
2022-10-09T02:18:25.901Z,19.13
2022-10-09T02:21:00.684Z,15.00
2022-10-09T02:23:30.151Z,16.50
2022-10-09T02:25:59.047Z,15.37
2022-10-09T02:28:28.821Z,15.17
2022-10-09T02:31:03.119Z,15.23
2022-10-09T02:33:35.328Z,14.60
2022-10-09T02:36:04.591Z,16.20
2022-10-09T02:38:32.896Z,18.97
2022-10-09T02:41:02.259Z,16.47
2022-10-09T02:43:31.790Z,17.87
2022-10-09T02:46:00.004Z,21.30
2022-10-09T02:48:28.226Z,18.13
2022-10-09T02:50:56.460Z,20.53
2022-10-09T02:53:24.691Z,18.87
2022-10-09T02:55:55.467Z,19.00
2022-10-09T02:58:26.238Z,19.70
2022-10-09T03:00:56.515Z,18.97
2022-10-09T03:03:24.745Z,16.53
2022-10-09T03:06:01.204Z,14.23
2022-10-09T03:08:29.747Z,18.63
2022-10-09T03:10:58.381Z,15.63
2022-10-09T03:13:26.526Z,13.50
2022-10-09T03:15:56.284Z,14.87
2022-10-09T03:18:24.443Z,15.50
2022-10-09T03:20:52.636Z,13.07
2022-10-09T03:23:20.874Z,14.50
2022-10-09T03:25:57.320Z,12.57
2022-10-09T03:28:26.033Z,13.93
2022-10-09T03:30:54.482Z,13.93
2022-10-09T03:33:24.124Z,12.20
2022-10-09T03:35:52.440Z,15.03
2022-10-09T03:38:20.585Z,10.37
2022-10-09T03:40:48.833Z,10.77
2022-10-09T03:43:16.991Z,14.10
2022-10-09T03:45:45.346Z,10.87
2022-10-09T03:48:14.403Z,10.43
2022-10-09T03:50:44.575Z,11.47
2022-10-09T03:53:14.250Z,13.57
2022-10-09T03:55:42.825Z,12.43
2022-10-09T03:58:11.881Z,14.63
2022-10-09T04:00:40.271Z,12.63
2022-10-09T04:03:08.449Z,11.07
2022-10-09T04:05:36.692Z,15.47
2022-10-09T04:08:06.309Z,12.83
2022-10-09T04:10:34.743Z,10.57
2022-10-09T04:13:02.933Z,14.37
2022-10-09T04:15:31.137Z,12.03
2022-10-09T04:17:59.377Z,11.10
2022-10-09T04:20:27.593Z,11.33
2022-10-09T04:22:55.753Z,9.00
2022-10-09T04:25:25.258Z,9.27
2022-10-09T04:27:53.497Z,9.10
2022-10-09T04:30:21.612Z,12.67
2022-10-09T04:32:50.005Z,16.10
2022-10-09T04:35:18.505Z,13.90
2022-10-09T04:37:46.707Z,10.20
2022-10-09T04:40:14.918Z,13.33
2022-10-09T04:42:44.875Z,10.37
2022-10-09T04:45:13.106Z,10.93
2022-10-09T04:47:41.337Z,10.43
2022-10-09T04:50:10.652Z,10.00
2022-10-09T04:52:39.549Z,12.40
2022-10-09T04:55:08.592Z,14.53
2022-10-09T04:57:36.770Z,14.03
2022-10-09T05:00:07.507Z,12.63
2022-10-09T05:02:35.905Z,10.90
2022-10-09T05:05:04.448Z,13.10
2022-10-09T05:07:32.730Z,14.80
2022-10-09T05:10:01.014Z,8.70
2022-10-09T05:12:29.214Z,10.40
2022-10-09T05:14:57.479Z,10.30
2022-10-09T05:17:27.814Z,12.73
2022-10-09T05:19:56.473Z,11.70
2022-10-09T05:22:24.900Z,10.43
2022-10-09T05:24:53.172Z,9.57
2022-10-09T05:27:21.811Z,8.73
2022-10-09T05:29:50.007Z,12.30
2022-10-09T05:32:18.259Z,11.30
2022-10-09T05:34:47.711Z,10.73
2022-10-09T05:37:16.018Z,8.17
2022-10-09T05:39:45.159Z,8.93
2022-10-09T05:42:13.354Z,7.63
2022-10-09T05:44:41.827Z,9.27
2022-10-09T05:47:09.933Z,10.90
2022-10-09T05:49:38.085Z,10.13
2022-10-09T05:52:07.589Z,12.13
2022-10-09T05:54:35.847Z,13.40
2022-10-09T05:57:04.798Z,8.53
2022-10-09T05:59:35.600Z,9.53
2022-10-09T06:02:04.286Z,10.13
2022-10-09T06:04:32.523Z,10.43
2022-10-09T06:07:00.696Z,7.03
2022-10-09T06:09:30.478Z,7.87
2022-10-09T06:11:58.723Z,9.50
2022-10-09T06:14:26.827Z,8.20
2022-10-09T06:16:55.386Z,6.80
2022-10-09T06:19:23.567Z,7.93
2022-10-09T06:21:51.967Z,7.50
2022-10-09T06:24:28.727Z,12.83
2022-10-09T06:26:59.393Z,12.13
2022-10-09T06:29:27.771Z,11.83
2022-10-09T06:31:56.142Z,9.57
2022-10-09T06:34:24.580Z,10.20
2022-10-09T06:36:52.859Z,10.23
2022-10-09T06:39:21.217Z,9.93
2022-10-09T06:41:52.059Z,8.57
2022-10-09T06:44:44.476Z,9.20
2022-10-09T06:47:12.626Z,12.97
2022-10-09T06:49:43.152Z,16.13
2022-10-09T06:52:11.355Z,9.47
2022-10-09T06:54:39.604Z,11.87
2022-10-09T06:57:07.740Z,12.70
2022-10-09T06:59:35.890Z,10.13
2022-10-09T07:02:05.566Z,11.50
2022-10-09T07:04:33.788Z,13.97
2022-10-09T07:07:02.878Z,11.30
2022-10-09T07:09:31.105Z,12.23
2022-10-09T07:11:59.399Z,11.50
2022-10-09T07:14:27.761Z,10.73
2022-10-09T07:16:56.344Z,12.63
2022-10-09T07:19:25.867Z,17.83
2022-10-09T07:21:54.231Z,11.60
2022-10-09T07:24:24.633Z,11.67
2022-10-09T07:26:55.176Z,10.93
2022-10-09T07:29:26.012Z,13.30
2022-10-09T07:31:54.236Z,13.83
2022-10-09T07:34:22.699Z,11.53
2022-10-09T07:36:52.280Z,10.50
2022-10-09T07:39:20.529Z,7.90
2022-10-09T07:41:51.610Z,9.43
2022-10-09T07:44:19.905Z,9.97
2022-10-09T07:46:50.224Z,10.20
2022-10-09T07:49:18.430Z,13.13
2022-10-09T07:51:46.545Z,14.20
2022-10-09T07:54:16.266Z,10.87
2022-10-09T07:56:44.507Z,11.87
2022-10-09T07:59:14.974Z,12.83
2022-10-09T08:01:43.629Z,10.87
2022-10-09T08:04:11.966Z,14.20
2022-10-09T08:06:40.514Z,11.07
2022-10-09T08:09:09.911Z,10.07
2022-10-09T08:11:41.123Z,6.53
2022-10-09T08:14:16.598Z,9.00
2022-10-09T08:16:47.553Z,10.67
2022-10-09T08:19:15.862Z,9.07
2022-10-09T08:21:44.015Z,7.30
2022-10-09T08:24:13.131Z,8.90
2022-10-09T08:26:44.244Z,6.63
2022-10-09T08:29:13.991Z,8.43
2022-10-09T08:31:42.540Z,9.03
2022-10-09T08:34:12.086Z,7.80
2022-10-09T08:36:40.739Z,8.73
2022-10-09T08:39:09.018Z,9.90
2022-10-09T08:41:45.849Z,8.60
2022-10-09T08:44:18.614Z,8.47
2022-10-09T08:46:54.404Z,7.93
2022-10-09T08:49:28.597Z,6.20
2022-10-09T08:51:58.424Z,7.33
2022-10-09T08:54:34.311Z,7.93
2022-10-09T08:57:10.924Z,8.80
2022-10-09T08:59:39.231Z,9.57
2022-10-09T09:02:36.846Z,6.50
2022-10-09T09:05:25.966Z,6.63
2022-10-09T09:08:00.824Z,9.77
2022-10-09T09:10:38.128Z,5.67
2022-10-09T09:13:21.639Z,6.67
2022-10-09T09:15:56.800Z,8.97
2022-10-09T09:18:42.560Z,6.53
2022-10-09T09:21:23.354Z,8.87
2022-10-09T09:23:51.719Z,8.33
2022-10-09T09:26:22.412Z,14.40
2022-10-09T09:29:03.017Z,9.20
2022-10-09T09:31:37.078Z,9.90
2022-10-09T09:34:11.981Z,19.67
2022-10-09T09:36:45.957Z,11.13
2022-10-09T09:42:14.303Z,6.50
2022-10-09T09:44:48.976Z,8.90
2022-10-09T09:47:22.711Z,4.57
2022-10-09T09:49:55.426Z,5.00
2022-10-09T09:52:24.235Z,8.57
2022-10-09T09:54:52.461Z,8.37
2022-10-09T09:57:30.763Z,8.20
2022-10-09T10:00:18.717Z,7.80
2022-10-09T10:02:47.456Z,7.13
2022-10-09T10:05:19.344Z,6.10
2022-10-09T10:07:50.074Z,10.00
2022-10-09T10:10:25.019Z,11.67
2022-10-09T10:12:59.063Z,5.13
2022-10-09T10:15:30.543Z,8.40
2022-10-09T10:18:04.041Z,6.07
2022-10-09T10:20:35.072Z,7.40
2022-10-09T10:23:03.332Z,9.80
2022-10-09T10:25:34.685Z,3.70
2022-10-09T10:28:07.037Z,8.90
2022-10-09T10:30:38.142Z,6.10
2022-10-09T10:33:13.115Z,6.68
2022-10-09T10:35:44.419Z,4.75
2022-10-09T10:38:16.680Z,6.55
2022-10-09T10:40:50.576Z,5.60
2022-10-09T10:43:33.388Z,4.18
2022-10-09T10:46:10.242Z,7.80
2022-10-09T10:48:41.756Z,8.07
2022-10-09T10:51:27.577Z,4.70
2022-10-09T10:54:08.015Z,4.88
2022-10-09T10:56:41.027Z,5.90
2022-10-09T10:59:26.521Z,5.05
2022-10-09T11:02:23.942Z,5.57
2022-10-09T11:04:57.069Z,3.53
2022-10-09T11:07:31.575Z,4.53
2022-10-09T11:10:10.413Z,5.10
2022-10-09T11:12:48.406Z,4.53
2022-10-09T11:15:24.541Z,3.53
2022-10-09T11:18:04.262Z,5.18
2022-10-09T11:20:52.964Z,4.40
2022-10-09T11:23:29.626Z,6.95
2022-10-09T11:26:02.745Z,6.47
2022-10-09T11:28:38.652Z,4.88
2022-10-09T11:31:14.758Z,3.85
2022-10-09T11:33:48.079Z,4.55
2022-10-09T11:36:21.387Z,5.97
2022-10-09T11:38:54.099Z,4.53
2022-10-09T11:41:22.777Z,3.65
2022-10-09T11:44:00.905Z,4.18
2022-10-09T11:46:42.824Z,5.65
2022-10-09T11:49:21.970Z,7.07
2022-10-09T11:51:57.115Z,5.70
2022-10-09T11:54:27.607Z,5.18
2022-10-09T11:56:58.578Z,6.55
2022-10-09T11:59:30.344Z,4.25
2022-10-09T12:01:59.902Z,4.05
2022-10-09T12:05:03.179Z,4.47
2022-10-09T12:07:30.933Z,4.70
2022-10-09T12:10:03.599Z,6.00
2022-10-09T12:12:32.755Z,3.58
2022-10-09T12:15:12.600Z,5.50
2022-10-09T12:17:49.857Z,5.57
2022-10-09T12:20:24.744Z,6.05
2022-10-09T12:23:24.742Z,5.05
2022-10-09T12:25:47.508Z,3.85
2022-10-09T12:28:26.953Z,5.28
2022-10-09T12:30:56.760Z,6.07
2022-10-09T12:33:29.106Z,4.88
2022-10-09T12:36:06.782Z,3.50
2022-10-09T12:38:35.024Z,4.45
2022-10-09T12:41:08.273Z,6.65
2022-10-09T12:43:36.548Z,5.10
2022-10-09T12:46:04.959Z,7.25
2022-10-09T12:48:38.989Z,7.72
2022-10-09T12:51:17.697Z,5.85
2022-10-09T12:53:50.792Z,4.65
2022-10-09T12:56:23.040Z,5.57
2022-10-09T12:58:52.317Z,5.47
2022-10-09T13:01:21.403Z,8.05
2022-10-09T13:03:57.425Z,4.22
2022-10-09T13:06:29.346Z,5.28
2022-10-09T13:09:00.507Z,3.17
2022-10-09T13:11:37.225Z,3.60
2022-10-09T13:14:06.071Z,7.38
2022-10-09T13:16:41.985Z,14.95
2022-10-09T13:19:24.203Z,5.68
2022-10-09T13:22:19.965Z,2.30
2022-10-09T13:24:51.035Z,4.95
2022-10-09T13:27:20.081Z,4.25
2022-10-09T13:29:48.603Z,3.80
2022-10-09T13:32:18.363Z,3.53
2022-10-09T13:34:47.604Z,3.03
2022-10-09T13:37:20.168Z,3.60
2022-10-09T13:39:48.623Z,4.85
2022-10-09T13:42:18.179Z,2.70
2022-10-09T13:44:46.492Z,5.95
2022-10-09T13:47:14.717Z,6.07
2022-10-09T13:49:43.077Z,4.03
2022-10-09T13:52:11.307Z,4.22
2022-10-09T13:54:40.801Z,5.80
2022-10-09T13:57:09.445Z,4.32
2022-10-09T13:59:38.004Z,5.45
2022-10-09T14:02:06.851Z,4.10
2022-10-09T14:04:35.105Z,2.83
2022-10-09T14:07:03.422Z,3.60
2022-10-09T14:09:31.800Z,3.83
2022-10-09T14:12:01.476Z,2.63
2022-10-09T14:14:29.720Z,3.50
2022-10-09T14:16:57.987Z,3.17
2022-10-09T14:19:27.870Z,4.10
2022-10-09T14:21:56.820Z,5.07
2022-10-09T14:24:25.756Z,2.35
2022-10-09T14:26:54.134Z,2.58
2022-10-09T14:29:23.717Z,2.85
2022-10-09T14:31:52.438Z,2.63
2022-10-09T14:34:20.831Z,2.53
2022-10-09T14:36:49.003Z,3.97
2022-10-09T14:39:17.420Z,4.22
2022-10-09T14:41:45.870Z,3.45
2022-10-09T14:44:14.341Z,4.57
2022-10-09T14:46:44.131Z,2.28
2022-10-09T14:49:12.890Z,4.72
2022-10-09T14:51:42.196Z,2.28
2022-10-09T14:54:11.982Z,3.28
2022-10-09T14:56:40.470Z,4.70
2022-10-09T14:59:08.752Z,4.40
2022-10-09T15:01:37.189Z,2.53
2022-10-09T15:04:07.415Z,2.38
2022-10-09T15:06:36.753Z,4.30
2022-10-09T15:09:06.287Z,2.58
2022-10-09T15:11:36.827Z,1.73
2022-10-09T15:14:05.988Z,4.90
2022-10-09T15:16:34.410Z,2.72
2022-10-09T15:19:04.973Z,2.35
2022-10-09T15:21:36.402Z,7.22
2022-10-09T15:24:05.577Z,4.65
2022-10-09T15:26:35.789Z,4.50
2022-10-09T15:29:05.008Z,2.78
2022-10-09T15:31:35.609Z,4.03
2022-10-09T15:34:04.754Z,1.55
2022-10-09T15:36:36.024Z,2.80
2022-10-09T15:39:07.304Z,3.83
2022-10-09T15:41:38.017Z,4.00
2022-10-09T15:44:07.551Z,2.40
2022-10-09T15:46:38.179Z,4.40
2022-10-09T15:49:07.730Z,2.22
2022-10-09T15:51:37.480Z,4.53
2022-10-09T15:54:06.054Z,2.17
2022-10-09T15:56:39.724Z,2.92
2022-10-09T15:59:11.363Z,6.55
2022-10-09T16:01:39.605Z,3.95
2022-10-09T16:04:07.916Z,30.67
2022-10-09T16:06:37.728Z,31.67
2022-10-09T16:09:06.030Z,3.42
2022-10-09T16:11:34.738Z,2.63
2022-10-09T16:14:04.368Z,2.95
2022-10-09T16:16:32.752Z,2.92
2022-10-09T16:19:03.386Z,4.15
2022-10-09T16:21:31.655Z,4.65
2022-10-09T16:24:01.791Z,3.38
2022-10-09T16:26:30.780Z,3.35
2022-10-09T16:29:01.105Z,2.25
2022-10-09T16:31:31.309Z,7.22
2022-10-09T16:33:59.935Z,3.45
2022-10-09T16:36:28.333Z,3.92
2022-10-09T16:38:57.582Z,4.78
2022-10-09T16:41:27.508Z,3.67
2022-10-09T16:43:57.437Z,4.30
2022-10-09T16:46:27.837Z,3.40
2022-10-09T16:48:58.042Z,2.78
2022-10-09T16:51:28.741Z,2.53
2022-10-09T16:53:59.546Z,7.13
2022-10-09T16:56:33.020Z,11.68
2022-10-09T16:59:05.186Z,8.55
2022-10-09T17:01:36.161Z,5.93
2022-10-09T17:04:05.927Z,14.67
2022-10-09T17:06:34.166Z,12.80
2022-10-09T17:09:02.855Z,10.60
2022-10-09T17:11:32.553Z,10.60
2022-10-09T17:14:01.380Z,13.77
2022-10-09T17:16:32.051Z,11.88
2022-10-09T17:19:01.520Z,8.80
2022-10-09T17:21:34.150Z,13.07
2022-10-09T17:24:05.259Z,10.47
2022-10-09T17:26:35.275Z,12.98
2022-10-09T17:29:04.917Z,10.52
2022-10-09T17:31:33.403Z,8.77
2022-10-09T17:34:03.827Z,9.43
2022-10-09T17:36:35.302Z,9.70
2022-10-09T17:39:04.581Z,15.63
2022-10-09T17:41:34.105Z,10.63
2022-10-09T17:44:02.493Z,7.93
2022-10-09T17:46:31.601Z,8.37
2022-10-09T17:49:01.212Z,6.83
2022-10-09T17:51:31.614Z,6.07
2022-10-09T17:54:02.746Z,10.10
2022-10-09T17:56:34.132Z,7.73
2022-10-09T17:59:03.456Z,7.60
2022-10-09T18:01:31.989Z,4.67
2022-10-09T18:04:00.299Z,9.67
2022-10-09T18:06:29.080Z,9.83
2022-10-09T18:08:58.377Z,7.00
2022-10-09T18:11:28.492Z,5.77
2022-10-09T18:13:58.660Z,7.40
2022-10-09T18:16:35.435Z,4.33
2022-10-09T18:19:07.793Z,5.80
2022-10-09T18:21:36.310Z,4.77
2022-10-09T18:24:07.088Z,4.30
2022-10-09T18:26:35.475Z,6.13
2022-10-09T18:29:06.149Z,5.73
2022-10-09T18:31:34.437Z,5.03
2022-10-09T18:34:03.081Z,6.90
2022-10-09T18:36:33.770Z,5.77
2022-10-09T18:39:04.718Z,5.23
2022-10-09T18:41:33.370Z,7.53
2022-10-09T18:44:02.584Z,5.67
2022-10-09T18:46:35.691Z,6.90
2022-10-09T18:49:09.166Z,7.10
2022-10-09T18:51:39.114Z,6.40
2022-10-09T18:54:14.398Z,5.83
2022-10-09T18:56:45.534Z,7.40
2022-10-09T18:59:17.539Z,6.07
2022-10-09T19:01:47.206Z,6.80
2022-10-09T19:04:15.915Z,6.23
2022-10-09T19:06:44.209Z,6.10
2022-10-09T19:09:12.421Z,6.37
2022-10-09T19:11:41.236Z,5.73
2022-10-09T19:14:09.514Z,6.93
2022-10-09T19:16:37.761Z,5.70
2022-10-09T19:19:07.687Z,6.00
2022-10-09T19:21:36.478Z,6.07
2022-10-09T19:24:06.269Z,6.60
2022-10-09T19:26:35.361Z,6.77
2022-10-09T19:29:04.429Z,6.67
2022-10-09T19:31:33.803Z,5.30
2022-10-09T19:34:02.813Z,6.77
2022-10-09T19:36:34.470Z,6.67
2022-10-09T19:39:03.131Z,7.57
2022-10-09T19:41:31.551Z,6.67
2022-10-09T19:44:00.037Z,5.73
2022-10-09T19:46:29.522Z,5.93
2022-10-09T19:48:57.865Z,8.70
2022-10-09T19:51:27.551Z,4.93
2022-10-09T19:53:59.091Z,11.83
2022-10-09T19:56:29.475Z,5.80
2022-10-09T19:58:58.678Z,7.00
2022-10-09T20:01:28.028Z,6.63
2022-10-09T20:03:58.099Z,6.43
2022-10-09T20:06:26.516Z,6.43
2022-10-09T20:08:56.651Z,8.00
2022-10-09T20:11:26.570Z,7.37
2022-10-09T20:13:56.612Z,6.60
2022-10-09T20:16:25.812Z,6.27
2022-10-09T20:18:56.293Z,7.23
2022-10-09T20:21:24.559Z,7.70
2022-10-09T20:23:52.907Z,8.07
2022-10-09T20:26:23.022Z,7.23
2022-10-09T20:28:53.845Z,9.13
2022-10-09T20:31:24.283Z,6.50
2022-10-09T20:33:54.607Z,5.67
2022-10-09T20:36:28.718Z,8.20
2022-10-09T20:38:58.299Z,8.23
2022-10-09T20:41:29.033Z,8.10
2022-10-09T20:44:00.032Z,7.83
2022-10-09T20:46:30.014Z,7.03
2022-10-09T20:48:58.793Z,5.63
2022-10-09T20:51:27.328Z,7.03
2022-10-09T20:53:56.850Z,6.37
2022-10-09T20:56:28.438Z,6.17
2022-10-09T20:58:57.587Z,6.03
2022-10-09T21:01:27.960Z,7.77
2022-10-09T21:03:57.209Z,7.77
2022-10-09T21:06:27.643Z,7.97
2022-10-09T21:08:55.952Z,9.47
2022-10-09T21:11:25.167Z,7.73
2022-10-09T21:13:54.894Z,5.20
2022-10-09T21:16:24.668Z,6.23
2022-10-09T21:18:56.409Z,7.17
2022-10-09T21:21:25.286Z,6.50
2022-10-09T21:23:55.777Z,7.23
2022-10-09T21:26:25.109Z,9.80
2022-10-09T21:28:59.273Z,9.37
2022-10-09T21:31:30.075Z,7.10
2022-10-09T21:33:59.903Z,9.57
2022-10-09T21:36:35.526Z,7.50
2022-10-09T21:39:05.602Z,8.43
2022-10-09T21:41:34.333Z,7.53
2022-10-09T21:44:04.762Z,11.20
2022-10-09T21:46:33.518Z,16.90
2022-10-09T21:49:06.764Z,13.20
2022-10-09T21:51:35.798Z,12.43
2022-10-09T21:54:03.947Z,14.83
2022-10-09T21:56:34.170Z,11.83
2022-10-09T21:59:03.692Z,9.63
2022-10-09T22:01:32.310Z,11.90
2022-10-09T22:04:00.611Z,11.53
2022-10-09T22:06:28.868Z,12.93
2022-10-09T22:08:57.388Z,12.87
2022-10-09T22:11:25.672Z,14.00
2022-10-09T22:13:53.867Z,12.50
2022-10-09T22:16:24.516Z,14.87
2022-10-09T22:18:52.844Z,15.57
2022-10-09T22:21:22.861Z,16.73
2022-10-09T22:23:51.438Z,14.13
2022-10-09T22:26:22.242Z,14.03
2022-10-09T22:28:50.806Z,13.27
2022-10-09T22:31:21.313Z,12.30
2022-10-09T22:33:53.230Z,12.37
2022-10-09T22:36:23.936Z,11.33
2022-10-09T22:38:55.132Z,10.97
2022-10-09T22:41:24.287Z,9.73
2022-10-09T22:43:54.386Z,12.63
2022-10-09T22:46:24.640Z,9.93
2022-10-09T22:48:54.592Z,9.43
2022-10-09T22:51:25.217Z,13.53
2022-10-09T22:53:53.368Z,11.53
2022-10-09T22:56:24.178Z,9.33
2022-10-09T22:58:53.704Z,8.90
2022-10-09T23:01:30.112Z,8.03
2022-10-09T23:04:00.986Z,7.47
2022-10-09T23:06:29.498Z,11.67
2022-10-09T23:08:58.198Z,8.87
2022-10-09T23:11:27.609Z,10.07
2022-10-09T23:13:56.889Z,13.07
2022-10-09T23:16:26.412Z,10.57
2022-10-09T23:18:56.021Z,9.90
2022-10-09T23:21:27.470Z,10.33
2022-10-09T23:23:57.038Z,9.13
2022-10-09T23:26:27.847Z,8.33
2022-10-09T23:28:58.392Z,9.80
2022-10-09T23:31:27.430Z,9.27
2022-10-09T23:33:56.732Z,8.67
2022-10-09T23:36:29.186Z,9.30
2022-10-09T23:38:58.273Z,7.27
2022-10-09T23:41:29.210Z,9.50
2022-10-09T23:43:57.863Z,8.40
2022-10-09T23:46:29.167Z,8.10
2022-10-09T23:48:57.733Z,8.60
2022-10-09T23:51:28.370Z,8.30
2022-10-09T23:53:56.656Z,7.77
2022-10-09T23:56:26.839Z,7.93
2022-10-09T23:58:56.570Z,8.47
